Kezdőlap
METAR-TAF:

METAR-TAF

Repülőterek :

Malé, Maldív-szigetek

földrajzi szélesség: 04-12N, földrajzi hosszúság: 073-32E, magasság: 2 m

Jelenlegi meteorológiai megfigyelések

A jelentés 1 órával és 2 perccel ezelõtt készült, 21:00 UTC
Nyugat-délnyugati szél 6 kt
Hőmérséklet 28°C
Páratartalom 79%
Légköri nyomás 1012 hPa
Látótávolság 10 km, vagy több
Kevés felhő 1800 lábon, Tornyos gomolyfelhő.
Szakadozott felhőzet 28000 lábon

METAR: VRMM 212100Z 25006KT 9999 FEW018TCU BKN280 28/24 Q1012 NOSIG

Idő: 03:02 (22:02 UTC)

Előrejelzés

A jelentés 5 órával és 2 perccel ezelõtt készült, 17:00 UTC
Az előrejelzés 21-én 18 óra UTC és 22-én 24 óra UTC között érvényes
Nyugati szél 5 kt
Látótávolság 10 km, vagy több
Kevés felhő 1800 lábon
21-én 20 óra UTC és 22-én 03 óra UTC között ideiglenes
Látótávolság: 5000 m
Kevés felhő 1800 lábon, Cumulonimbus.
zivatar, enyhe esõ

TAF: VRMM 211700Z 2118/2224 28005KT 9999 FEW018 TEMPO 2120/2203 5000 -TSRA FEW018CB

Meteorológiai megfigyelések és előrejelzések több, mint 4000 repülőtéren (METAR és TAF jelentéseket).

A térképen piros és sárga pontok jelzik az elérhető meteorológiai állomásokat.

Mozgassa az egeret a pont fölött, hogy megjelenjen az állomás neve.

Azután kattintson az időjárási megfigyelések és előrejelzések megtekintéséhez.

A térkép megváltoztatása: kattintson a fekete keresztel jelölt zöld gombra ráközelítéshez, a vonallal jelölt zöld gombra távolításhoz, vagy a zöld nyilakra a szomszédos térképek eléréséhez.


METAR-TAF: